Terminal Aerodrome Forecast
Issued by NWS

Home | Current Version | Previous Version | Text Only | Print | Product List | Glossary On
Versions: 1 2 3 4 5 6 7 8 9 10 11 12
000
FTUS46 KSGX 050523
TAFONT
TAF
KONT 050523Z 0506/0612 VRB05KT P6SM SKC
     FM051100 VRB05KT P6SM SKC WS015/06020KT
     FM051800 05010KT P6SM SKC
     FM060000 VRB05KT P6SM SKC
     FM061100 VRB05KT P6SM SKC WS015/06020KT=

USA.gov is the U.S. government's official web portal to all federal, state and local government web resources and services.